sensor_id;sensor_type;location;lat;lon;timestamp;pressure;altitude;pressure_sealevel;temperature;humidity
78149;BME280;67396;42.664;23.382;2023-03-01T00:01:49;95438.22;;;5.57;76.72
78149;BME280;67396;42.664;23.382;2023-03-01T00:04:15;95437.31;;;5.53;76.40
78149;BME280;67396;42.664;23.382;2023-03-01T00:06:42;95441.50;;;5.51;76.58
78149;BME280;67396;42.664;23.382;2023-03-01T00:09:11;95443.44;;;5.50;76.34
78149;BME280;67396;42.664;23.382;2023-03-01T00:11:37;95439.91;;;5.50;76.56
78149;BME280;67396;42.664;23.382;2023-03-01T00:14:03;95431.41;;;5.51;76.08
78149;BME280;67396;42.664;23.382;2023-03-01T00:16:42;95425.19;;;5.51;76.04
78149;BME280;67396;42.664;23.382;2023-03-01T00:19:13;95431.09;;;5.53;76.10
78149;BME280;67396;42.664;23.382;2023-03-01T00:21:40;95415.53;;;5.53;75.88
78149;BME280;67396;42.664;23.382;2023-03-01T00:24:06;95413.72;;;5.57;75.68
78149;BME280;67396;42.664;23.382;2023-03-01T00:26:31;95406.13;;;5.51;76.10
78149;BME280;67396;42.664;23.382;2023-03-01T00:28:58;95404.66;;;5.53;76.08
78149;BME280;67396;42.664;23.382;2023-03-01T00:31:26;95411.78;;;5.58;75.53
78149;BME280;67396;42.664;23.382;2023-03-01T00:33:53;95403.94;;;5.56;75.83
78149;BME280;67396;42.664;23.382;2023-03-01T00:36:25;95419.72;;;5.51;75.83
78149;BME280;67396;42.664;23.382;2023-03-01T00:38:51;95400.13;;;5.45;75.95
78149;BME280;67396;42.664;23.382;2023-03-01T00:41:18;95413.94;;;5.40;76.33
78149;BME280;67396;42.664;23.382;2023-03-01T00:43:44;95395.34;;;5.30;76.55
78149;BME280;67396;42.664;23.382;2023-03-01T00:46:12;95391.81;;;5.29;76.58
78149;BME280;67396;42.664;23.382;2023-03-01T00:48:38;95406.22;;;5.30;76.59
78149;BME280;67396;42.664;23.382;2023-03-01T00:51:18;95409.19;;;5.25;77.04
78149;BME280;67396;42.664;23.382;2023-03-01T00:53:44;95400.69;;;5.26;77.08
78149;BME280;67396;42.664;23.382;2023-03-01T00:56:12;95400.56;;;5.23;77.12
78149;BME280;67396;42.664;23.382;2023-03-01T00:58:37;95403.28;;;5.23;77.08
78149;BME280;67396;42.664;23.382;2023-03-01T01:01:15;95394.44;;;5.26;76.78
78149;BME280;67396;42.664;23.382;2023-03-01T01:03:49;95391.03;;;5.29;76.70
78149;BME280;67396;42.664;23.382;2023-03-01T01:06:19;95405.66;;;5.24;76.41
78149;BME280;67396;42.664;23.382;2023-03-01T01:08:45;95404.63;;;5.29;76.60
78149;BME280;67396;42.664;23.382;2023-03-01T01:11:12;95399.19;;;5.29;76.33
78149;BME280;67396;42.664;23.382;2023-03-01T01:13:38;95395.56;;;5.37;76.15
78149;BME280;67396;42.664;23.382;2023-03-01T01:16:04;95396.47;;;5.41;75.90
78149;BME280;67396;42.664;23.382;2023-03-01T01:18:30;95398.75;;;5.39;76.12
78149;BME280;67396;42.664;23.382;2023-03-01T01:20:55;95408.03;;;5.38;75.84
78149;BME280;67396;42.664;23.382;2023-03-01T01:23:21;95394.88;;;5.28;75.56
78149;BME280;67396;42.664;23.382;2023-03-01T01:25:47;95395.69;;;5.16;75.98
78149;BME280;67396;42.664;23.382;2023-03-01T01:28:12;95391.59;;;5.22;75.79
78149;BME280;67396;42.664;23.382;2023-03-01T01:30:37;95392.06;;;5.24;75.56
78149;BME280;67396;42.664;23.382;2023-03-01T01:33:03;95409.38;;;5.20;75.62
78149;BME280;67396;42.664;23.382;2023-03-01T01:35:28;95401.34;;;5.23;75.94
78149;BME280;67396;42.664;23.382;2023-03-01T01:37:54;95403.03;;;5.28;75.57
78149;BME280;67396;42.664;23.382;2023-03-01T01:40:19;95389.91;;;5.30;75.23
78149;BME280;67396;42.664;23.382;2023-03-01T01:42:45;95414.38;;;5.30;75.11
78149;BME280;67396;42.664;23.382;2023-03-01T01:45:31;95407.16;;;5.34;74.73
78149;BME280;67396;42.664;23.382;2023-03-01T01:48:07;95409.41;;;5.32;74.72
78149;BME280;67396;42.664;23.382;2023-03-01T01:50:39;95403.97;;;5.32;74.96
78149;BME280;67396;42.664;23.382;2023-03-01T01:53:09;95403.28;;;5.35;74.39
78149;BME280;67396;42.664;23.382;2023-03-01T01:55:41;95405.44;;;5.29;74.28
78149;BME280;67396;42.664;23.382;2023-03-01T01:58:09;95409.41;;;5.32;74.53
78149;BME280;67396;42.664;23.382;2023-03-01T02:00:36;95402.84;;;5.33;74.46
78149;BME280;67396;42.664;23.382;2023-03-01T02:03:14;95391.47;;;5.31;73.66
78149;BME280;67396;42.664;23.382;2023-03-01T02:06:10;95394.53;;;5.29;73.92
78149;BME280;67396;42.664;23.382;2023-03-01T02:08:38;95396.13;;;5.30;74.10
78149;BME280;67396;42.664;23.382;2023-03-01T02:11:06;95374.34;;;5.30;73.61
78149;BME280;67396;42.664;23.382;2023-03-01T02:13:33;95379.00;;;5.30;73.79
78149;BME280;67396;42.664;23.382;2023-03-01T02:16:02;95390.34;;;5.32;73.50
78149;BME280;67396;42.664;23.382;2023-03-01T02:18:28;95382.06;;;5.28;73.54
78149;BME280;67396;42.664;23.382;2023-03-01T02:21:23;95385.47;;;5.25;73.78
78149;BME280;67396;42.664;23.382;2023-03-01T02:23:53;95381.19;;;5.24;73.84
78149;BME280;67396;42.664;23.382;2023-03-01T02:26:36;95392.84;;;5.25;73.82
78149;BME280;67396;42.664;23.382;2023-03-01T02:29:06;95392.84;;;5.25;74.03
78149;BME280;67396;42.664;23.382;2023-03-01T02:31:31;95390.47;;;5.23;74.51
78149;BME280;67396;42.664;23.382;2023-03-01T02:34:15;95390.72;;;5.18;74.68
78149;BME280;67396;42.664;23.382;2023-03-01T02:36:52;95399.66;;;5.19;74.75
78149;BME280;67396;42.664;23.382;2023-03-01T02:39:37;95406.66;;;5.20;75.01
78149;BME280;67396;42.664;23.382;2023-03-01T02:42:10;95403.16;;;5.19;75.38
78149;BME280;67396;42.664;23.382;2023-03-01T02:44:36;95393.84;;;5.20;75.22
78149;BME280;67396;42.664;23.382;2023-03-01T02:47:02;95391.72;;;5.14;75.16
78149;BME280;67396;42.664;23.382;2023-03-01T02:49:31;95388.78;;;5.19;75.24
78149;BME280;67396;42.664;23.382;2023-03-01T02:54:46;95391.38;;;5.15;74.98
78149;BME280;67396;42.664;23.382;2023-03-01T02:57:13;95390.44;;;5.11;75.11
78149;BME280;67396;42.664;23.382;2023-03-01T02:59:40;95374.03;;;5.08;75.47
78149;BME280;67396;42.664;23.382;2023-03-01T03:02:07;95389.22;;;5.09;75.00
78149;BME280;67396;42.664;23.382;2023-03-01T03:04:32;95385.03;;;4.99;75.42
78149;BME280;67396;42.664;23.382;2023-03-01T03:06:58;95378.78;;;4.99;75.77
78149;BME280;67396;42.664;23.382;2023-03-01T03:09:23;95384.22;;;4.99;75.85
78149;BME280;67396;42.664;23.382;2023-03-01T03:11:49;95385.56;;;4.92;76.42
78149;BME280;67396;42.664;23.382;2023-03-01T03:14:16;95380.81;;;4.89;76.39
78149;BME280;67396;42.664;23.382;2023-03-01T03:16:44;95384.66;;;4.88;76.34
78149;BME280;67396;42.664;23.382;2023-03-01T03:19:11;95389.63;;;4.86;76.47
78149;BME280;67396;42.664;23.382;2023-03-01T03:21:37;95388.16;;;4.89;76.38
78149;BME280;67396;42.664;23.382;2023-03-01T03:24:03;95379.69;;;4.90;76.22
78149;BME280;67396;42.664;23.382;2023-03-01T03:26:29;95396.44;;;4.80;76.21
78149;BME280;67396;42.664;23.382;2023-03-01T03:28:54;95390.75;;;4.73;76.66
78149;BME280;67396;42.664;23.382;2023-03-01T03:31:21;95402.88;;;4.76;76.30
78149;BME280;67396;42.664;23.382;2023-03-01T03:33:46;95390.34;;;4.83;76.46
78149;BME280;67396;42.664;23.382;2023-03-01T03:36:16;95401.31;;;4.75;76.55
78149;BME280;67396;42.664;23.382;2023-03-01T03:38:43;95394.28;;;4.74;76.35
78149;BME280;67396;42.664;23.382;2023-03-01T03:41:08;95398.00;;;4.69;76.92
78149;BME280;67396;42.664;23.382;2023-03-01T03:43:36;95392.44;;;4.66;77.22
78149;BME280;67396;42.664;23.382;2023-03-01T03:46:03;95394.38;;;4.77;76.76
78149;BME280;67396;42.664;23.382;2023-03-01T03:48:33;95397.22;;;4.93;76.02
78149;BME280;67396;42.664;23.382;2023-03-01T03:50:59;95406.78;;;4.99;75.76
78149;BME280;67396;42.664;23.382;2023-03-01T03:53:26;95403.03;;;5.04;75.64
78149;BME280;67396;42.664;23.382;2023-03-01T03:55:53;95406.22;;;5.06;75.40
78149;BME280;67396;42.664;23.382;2023-03-01T03:58:19;95405.75;;;5.04;75.19
78149;BME280;67396;42.664;23.382;2023-03-01T04:00:47;95398.38;;;5.04;75.21
78149;BME280;67396;42.664;23.382;2023-03-01T04:03:14;95404.41;;;4.98;75.99
78149;BME280;67396;42.664;23.382;2023-03-01T04:05:41;95403.03;;;5.04;75.60
78149;BME280;67396;42.664;23.382;2023-03-01T04:08:07;95400.09;;;4.97;75.45
78149;BME280;67396;42.664;23.382;2023-03-01T04:10:41;95406.66;;;4.96;75.39
78149;BME280;67396;42.664;23.382;2023-03-01T04:13:09;95414.81;;;4.96;75.59
78149;BME280;67396;42.664;23.382;2023-03-01T04:15:35;95413.56;;;4.93;75.83
78149;BME280;67396;42.664;23.382;2023-03-01T04:18:02;95409.59;;;4.90;75.89
78149;BME280;67396;42.664;23.382;2023-03-01T04:20:30;95403.47;;;4.81;76.60
78149;BME280;67396;42.664;23.382;2023-03-01T04:23:11;95398.38;;;4.92;76.38
78149;BME280;67396;42.664;23.382;2023-03-01T04:25:54;95399.09;;;5.01;76.04
78149;BME280;67396;42.664;23.382;2023-03-01T04:28:28;95401.00;;;5.01;76.01
78149;BME280;67396;42.664;23.382;2023-03-01T04:30:57;95404.41;;;4.98;76.09
78149;BME280;67396;42.664;23.382;2023-03-01T04:33:23;95402.22;;;5.03;76.07
78149;BME280;67396;42.664;23.382;2023-03-01T04:35:49;95395.09;;;4.99;75.98
78149;BME280;67396;42.664;23.382;2023-03-01T04:38:15;95405.97;;;4.99;75.85
78149;BME280;67396;42.664;23.382;2023-03-01T04:40:41;95405.66;;;5.00;75.68
78149;BME280;67396;42.664;23.382;2023-03-01T04:43:09;95401.44;;;4.90;76.21
78149;BME280;67396;42.664;23.382;2023-03-01T04:45:35;95394.63;;;4.97;76.01
78149;BME280;67396;42.664;23.382;2023-03-01T04:48:01;95395.19;;;4.90;76.44
78149;BME280;67396;42.664;23.382;2023-03-01T04:50:27;95401.66;;;4.85;76.17
78149;BME280;67396;42.664;23.382;2023-03-01T04:52:52;95404.59;;;4.80;76.75
78149;BME280;67396;42.664;23.382;2023-03-01T04:55:18;95387.84;;;4.90;76.26
78149;BME280;67396;42.664;23.382;2023-03-01T04:57:44;95404.59;;;4.80;76.48
78149;BME280;67396;42.664;23.382;2023-03-01T05:00:10;95395.59;;;4.68;76.84
78149;BME280;67396;42.664;23.382;2023-03-01T05:02:48;95412.50;;;4.73;76.63
78149;BME280;67396;42.664;23.382;2023-03-01T05:05:20;95396.41;;;4.68;77.23
78149;BME280;67396;42.664;23.382;2023-03-01T05:07:46;95411.81;;;4.64;77.46
78149;BME280;67396;42.664;23.382;2023-03-01T05:10:12;95397.09;;;4.65;77.50
78149;BME280;67396;42.664;23.382;2023-03-01T05:12:37;95402.53;;;4.65;77.43
78149;BME280;67396;42.664;23.382;2023-03-01T05:15:04;95406.47;;;4.68;76.97
78149;BME280;67396;42.664;23.382;2023-03-01T05:17:33;95400.59;;;4.66;77.49
78149;BME280;67396;42.664;23.382;2023-03-01T05:19:59;95410.06;;;4.60;77.61
78149;BME280;67396;42.664;23.382;2023-03-01T05:22:25;95407.03;;;4.61;77.30
78149;BME280;67396;42.664;23.382;2023-03-01T05:24:50;95409.03;;;4.52;77.37
78149;BME280;67396;42.664;23.382;2023-03-01T05:27:16;95410.63;;;4.53;77.56
78149;BME280;67396;42.664;23.382;2023-03-01T05:29:41;95405.56;;;4.64;77.15
78149;BME280;67396;42.664;23.382;2023-03-01T05:32:06;95414.53;;;4.64;77.24
78149;BME280;67396;42.664;23.382;2023-03-01T05:34:36;95402.94;;;4.55;77.74
78149;BME280;67396;42.664;23.382;2023-03-01T05:37:02;95400.78;;;4.61;77.09
78149;BME280;67396;42.664;23.382;2023-03-01T05:39:29;95404.06;;;4.54;77.21
78149;BME280;67396;42.664;23.382;2023-03-01T05:41:59;95414.72;;;4.59;77.39
78149;BME280;67396;42.664;23.382;2023-03-01T05:44:26;95414.47;;;4.52;77.69
78149;BME280;67396;42.664;23.382;2023-03-01T05:46:52;95417.91;;;4.61;77.16
78149;BME280;67396;42.664;23.382;2023-03-01T05:49:17;95414.97;;;4.66;76.82
78149;BME280;67396;42.664;23.382;2023-03-01T05:51:48;95415.47;;;4.80;76.42
78149;BME280;67396;42.664;23.382;2023-03-01T05:54:14;95413.22;;;4.82;75.87
78149;BME280;67396;42.664;23.382;2023-03-01T05:56:40;95419.31;;;4.79;76.37
78149;BME280;67396;42.664;23.382;2023-03-01T05:59:05;95428.72;;;4.82;76.58
78149;BME280;67396;42.664;23.382;2023-03-01T06:01:32;95429.72;;;4.77;76.59
78149;BME280;67396;42.664;23.382;2023-03-01T06:03:58;95430.44;;;4.86;76.37
78149;BME280;67396;42.664;23.382;2023-03-01T06:06:24;95433.63;;;4.88;76.17
78149;BME280;67396;42.664;23.382;2023-03-01T06:08:50;95432.94;;;4.91;76.00
78149;BME280;67396;42.664;23.382;2023-03-01T06:11:20;95440.41;;;4.82;76.35
78149;BME280;67396;42.664;23.382;2023-03-01T06:13:46;95448.34;;;4.87;76.19
78149;BME280;67396;42.664;23.382;2023-03-01T06:16:12;95453.44;;;5.95;85.90
78149;BME280;67396;42.664;23.382;2023-03-01T06:18:38;95439.22;;;6.41;77.39
78149;BME280;67396;42.664;23.382;2023-03-01T06:21:05;95451.53;;;7.23;77.17
78149;BME280;67396;42.664;23.382;2023-03-01T06:23:30;95447.19;;;6.90;68.67
78149;BME280;67396;42.664;23.382;2023-03-01T06:25:56;95451.97;;;6.25;70.80
78149;BME280;67396;42.664;23.382;2023-03-01T06:28:22;95457.03;;;5.38;73.95
78149;BME280;67396;42.664;23.382;2023-03-01T06:30:47;95455.22;;;5.30;74.50
78149;BME280;67396;42.664;23.382;2023-03-01T06:33:13;95449.19;;;5.12;75.62
78149;BME280;67396;42.664;23.382;2023-03-01T06:35:39;95452.94;;;5.08;75.73
78149;BME280;67396;42.664;23.382;2023-03-01T06:38:05;95445.44;;;5.05;75.54
78149;BME280;67396;42.664;23.382;2023-03-01T06:40:31;95453.13;;;4.90;75.83
78149;BME280;67396;42.664;23.382;2023-03-01T06:42:57;95453.31;;;4.85;76.53
78149;BME280;67396;42.664;23.382;2023-03-01T06:45:24;95447.44;;;4.83;76.41
78149;BME280;67396;42.664;23.382;2023-03-01T06:47:50;95454.34;;;4.81;76.34
78149;BME280;67396;42.664;23.382;2023-03-01T06:50:26;95446.75;;;4.86;76.08
78149;BME280;67396;42.664;23.382;2023-03-01T06:52:55;95443.69;;;4.88;75.74
78149;BME280;67396;42.664;23.382;2023-03-01T06:55:21;95444.50;;;4.88;75.87
78149;BME280;67396;42.664;23.382;2023-03-01T06:57:46;95444.91;;;4.78;75.85
78149;BME280;67396;42.664;23.382;2023-03-01T07:00:12;95445.72;;;4.79;76.11
78149;BME280;67396;42.664;23.382;2023-03-01T07:02:38;95461.22;;;4.78;76.77
78149;BME280;67396;42.664;23.382;2023-03-01T07:05:04;95449.00;;;4.72;76.62
78149;BME280;67396;42.664;23.382;2023-03-01T07:07:29;95454.19;;;4.77;76.40
78149;BME280;67396;42.664;23.382;2023-03-01T07:09:55;95461.81;;;4.84;76.09
78149;BME280;67396;42.664;23.382;2023-03-01T07:12:20;95446.75;;;4.74;76.33
78149;BME280;67396;42.664;23.382;2023-03-01T07:14:49;95446.66;;;4.83;76.71
78149;BME280;67396;42.664;23.382;2023-03-01T07:17:14;95444.72;;;4.96;75.94
78149;BME280;67396;42.664;23.382;2023-03-01T07:19:39;95455.63;;;4.96;75.71
78149;BME280;67396;42.664;23.382;2023-03-01T07:22:05;95442.56;;;4.89;75.78
78149;BME280;67396;42.664;23.382;2023-03-01T07:24:33;95446.28;;;4.84;75.89
78149;BME280;67396;42.664;23.382;2023-03-01T07:26:58;95443.56;;;4.84;75.92
78149;BME280;67396;42.664;23.382;2023-03-01T07:29:24;95427.50;;;4.91;75.63
78149;BME280;67396;42.664;23.382;2023-03-01T07:31:49;95438.06;;;5.05;74.58
78149;BME280;67396;42.664;23.382;2023-03-01T07:34:15;95444.06;;;5.11;74.34
78149;BME280;67396;42.664;23.382;2023-03-01T07:36:40;95428.22;;;5.13;74.40
78149;BME280;67396;42.664;23.382;2023-03-01T07:39:09;95433.22;;;5.23;73.92
78149;BME280;67396;42.664;23.382;2023-03-01T07:41:34;95428.69;;;5.39;73.24
78149;BME280;67396;42.664;23.382;2023-03-01T07:44:00;95431.31;;;5.36;72.45
78149;BME280;67396;42.664;23.382;2023-03-01T07:46:25;95442.06;;;5.32;73.06
78149;BME280;67396;42.664;23.382;2023-03-01T07:48:51;95428.22;;;5.37;72.96
78149;BME280;67396;42.664;23.382;2023-03-01T07:51:16;95434.22;;;5.30;72.64
78149;BME280;67396;42.664;23.382;2023-03-01T07:53:41;95424.38;;;5.26;73.39
78149;BME280;67396;42.664;23.382;2023-03-01T07:56:09;95426.53;;;5.33;72.90
78149;BME280;67396;42.664;23.382;2023-03-01T07:58:36;95422.22;;;5.32;73.29
78149;BME280;67396;42.664;23.382;2023-03-01T08:01:03;95405.00;;;5.27;73.00
78149;BME280;67396;42.664;23.382;2023-03-01T08:03:29;95414.84;;;5.32;73.19
78149;BME280;67396;42.664;23.382;2023-03-01T08:05:54;95408.97;;;5.42;73.08
78149;BME280;67396;42.664;23.382;2023-03-01T08:08:20;95405.31;;;5.50;72.41
78149;BME280;67396;42.664;23.382;2023-03-01T08:10:45;95412.56;;;5.46;72.65
78149;BME280;67396;42.664;23.382;2023-03-01T08:13:10;95417.59;;;5.44;72.28
78149;BME280;67396;42.664;23.382;2023-03-01T08:15:36;95415.75;;;5.48;72.43
78149;BME280;67396;42.664;23.382;2023-03-01T08:18:02;95413.72;;;5.45;71.85
78149;BME280;67396;42.664;23.382;2023-03-01T08:20:27;95422.34;;;5.35;72.42
78149;BME280;67396;42.664;23.382;2023-03-01T08:22:52;95414.84;;;5.32;72.66
78149;BME280;67396;42.664;23.382;2023-03-01T08:25:18;95409.63;;;5.39;72.78
78149;BME280;67396;42.664;23.382;2023-03-01T08:27:43;95417.34;;;5.49;71.24
78149;BME280;67396;42.664;23.382;2023-03-01T08:30:09;95410.31;;;5.60;71.16
78149;BME280;67396;42.664;23.382;2023-03-01T08:32:37;95412.13;;;5.68;70.18
78149;BME280;67396;42.664;23.382;2023-03-01T08:35:05;95424.56;;;5.82;69.86
78149;BME280;67396;42.664;23.382;2023-03-01T08:37:31;95402.09;;;5.85;70.03
78149;BME280;67396;42.664;23.382;2023-03-01T08:39:59;95410.50;;;5.92;68.84
78149;BME280;67396;42.664;23.382;2023-03-01T08:42:25;95402.91;;;5.85;69.05
78149;BME280;67396;42.664;23.382;2023-03-01T08:44:50;95402.69;;;5.90;68.88
78149;BME280;67396;42.664;23.382;2023-03-01T08:47:16;95406.66;;;5.93;68.08
78149;BME280;67396;42.664;23.382;2023-03-01T08:49:41;95414.81;;;6.05;68.15
78149;BME280;67396;42.664;23.382;2023-03-01T08:52:07;95407.97;;;6.11;67.86
78149;BME280;67396;42.664;23.382;2023-03-01T08:54:32;95413.16;;;5.88;68.07
78149;BME280;67396;42.664;23.382;2023-03-01T08:56:58;95417.88;;;5.91;68.10
78149;BME280;67396;42.664;23.382;2023-03-01T08:59:25;95427.88;;;5.87;68.38
78149;BME280;67396;42.664;23.382;2023-03-01T09:01:50;95410.06;;;5.90;68.10
78149;BME280;67396;42.664;23.382;2023-03-01T09:04:16;95414.91;;;5.84;68.18
78149;BME280;67396;42.664;23.382;2023-03-01T09:06:42;95425.25;;;5.91;68.10
78149;BME280;67396;42.664;23.382;2023-03-01T09:09:13;95420.25;;;5.81;68.49
78149;BME280;67396;42.664;23.382;2023-03-01T09:11:40;95416.41;;;5.82;68.77
78149;BME280;67396;42.664;23.382;2023-03-01T09:14:05;95417.09;;;5.79;68.42
78149;BME280;67396;42.664;23.382;2023-03-01T09:16:32;95420.97;;;5.78;68.78
78149;BME280;67396;42.664;23.382;2023-03-01T09:19:01;95430.03;;;5.70;68.81
78149;BME280;67396;42.664;23.382;2023-03-01T09:21:27;95421.97;;;5.73;68.91
78149;BME280;67396;42.664;23.382;2023-03-01T09:23:52;95419.69;;;5.75;68.77
78149;BME280;67396;42.664;23.382;2023-03-01T09:26:20;95411.66;;;5.79;68.55
78149;BME280;67396;42.664;23.382;2023-03-01T09:28:48;95436.59;;;5.81;68.48
78149;BME280;67396;42.664;23.382;2023-03-01T09:31:15;95413.25;;;5.67;68.83
78149;BME280;67396;42.664;23.382;2023-03-01T09:33:41;95416.56;;;5.61;69.12
78149;BME280;67396;42.664;23.382;2023-03-01T09:36:12;95405.88;;;5.68;69.44
78149;BME280;67396;42.664;23.382;2023-03-01T09:38:38;95413.38;;;5.71;69.17
78149;BME280;67396;42.664;23.382;2023-03-01T09:41:11;95427.31;;;5.70;69.39
78149;BME280;67396;42.664;23.382;2023-03-01T09:43:48;95404.75;;;5.69;69.70
78149;BME280;67396;42.664;23.382;2023-03-01T09:46:23;95412.56;;;5.71;69.78
78149;BME280;67396;42.664;23.382;2023-03-01T09:48:54;95391.72;;;5.62;69.89
78149;BME280;67396;42.664;23.382;2023-03-01T09:51:31;95401.44;;;5.63;69.80
78149;BME280;67396;42.664;23.382;2023-03-01T09:53:58;95389.66;;;5.72;69.58
78149;BME280;67396;42.664;23.382;2023-03-01T09:56:40;95403.69;;;5.86;68.87
78149;BME280;67396;42.664;23.382;2023-03-01T09:59:30;95402.56;;;5.75;68.94
78149;BME280;67396;42.664;23.382;2023-03-01T10:04:46;95397.13;;;5.75;69.76
78149;BME280;67396;42.664;23.382;2023-03-01T10:10:21;95392.13;;;5.77;69.88
78149;BME280;67396;42.664;23.382;2023-03-01T10:12:53;95387.22;;;5.82;69.10
78149;BME280;67396;42.664;23.382;2023-03-01T10:15:47;95383.63;;;5.78;69.45
78149;BME280;67396;42.664;23.382;2023-03-01T10:18:14;95375.31;;;5.87;69.20
78149;BME280;67396;42.664;23.382;2023-03-01T10:20:46;95380.75;;;5.99;69.08
78149;BME280;67396;42.664;23.382;2023-03-01T10:23:23;95375.88;;;5.92;69.32
78149;BME280;67396;42.664;23.382;2023-03-01T10:28:49;95360.25;;;5.77;69.77
78149;BME280;67396;42.664;23.382;2023-03-01T10:31:36;95366.69;;;5.97;69.56
78149;BME280;67396;42.664;23.382;2023-03-01T10:34:13;95352.53;;;6.19;68.53
78149;BME280;67396;42.664;23.382;2023-03-01T10:36:40;95361.00;;;6.30;67.94
78149;BME280;67396;42.664;23.382;2023-03-01T10:39:13;95351.69;;;6.31;67.25
78149;BME280;67396;42.664;23.382;2023-03-01T10:42:25;95347.25;;;6.26;67.48
78149;BME280;67396;42.664;23.382;2023-03-01T10:44:50;95345.97;;;6.36;67.22
78149;BME280;67396;42.664;23.382;2023-03-01T10:47:24;95344.94;;;6.40;67.43
78149;BME280;67396;42.664;23.382;2023-03-01T10:50:05;95344.34;;;6.47;66.94
78149;BME280;67396;42.664;23.382;2023-03-01T10:52:36;95346.75;;;6.36;66.92
78149;BME280;67396;42.664;23.382;2023-03-01T10:55:25;95342.25;;;6.28;67.46
78149;BME280;67396;42.664;23.382;2023-03-01T10:58:24;95335.84;;;6.36;67.49
78149;BME280;67396;42.664;23.382;2023-03-01T11:00:51;95334.03;;;6.40;67.73
78149;BME280;67396;42.664;23.382;2023-03-01T11:03:42;95341.84;;;6.42;67.27
78149;BME280;67396;42.664;23.382;2023-03-01T11:06:21;95335.31;;;6.59;67.06
78149;BME280;67396;42.664;23.382;2023-03-01T11:08:48;95341.00;;;6.69;66.77
78149;BME280;67396;42.664;23.382;2023-03-01T11:16:35;95338.56;;;6.80;65.56
78149;BME280;67396;42.664;23.382;2023-03-01T11:19:14;95337.25;;;6.74;65.65
78149;BME280;67396;42.664;23.382;2023-03-01T11:21:50;95334.25;;;6.79;65.54
78149;BME280;67396;42.664;23.382;2023-03-01T11:24:18;95339.97;;;6.90;65.10
78149;BME280;67396;42.664;23.382;2023-03-01T11:26:47;95338.50;;;6.92;64.76
78149;BME280;67396;42.664;23.382;2023-03-01T11:29:30;95330.47;;;6.84;65.75
78149;BME280;67396;42.664;23.382;2023-03-01T11:32:03;95326.00;;;6.75;65.64
78149;BME280;67396;42.664;23.382;2023-03-01T11:37:18;95331.28;;;6.68;66.26
78149;BME280;67396;42.664;23.382;2023-03-01T11:39:54;95324.22;;;6.83;66.42
78149;BME280;67396;42.664;23.382;2023-03-01T11:45:11;95319.63;;;6.87;66.21
78149;BME280;67396;42.664;23.382;2023-03-01T11:48:12;95312.53;;;6.83;66.34
78149;BME280;67396;42.664;23.382;2023-03-01T11:50:49;95311.78;;;6.70;66.48
78149;BME280;67396;42.664;23.382;2023-03-01T12:02:27;95300.13;;;6.85;66.53
78149;BME280;67396;42.664;23.382;2023-03-01T12:05:07;95296.84;;;6.79;66.14
78149;BME280;67396;42.664;23.382;2023-03-01T12:10:28;95309.63;;;6.91;65.73
78149;BME280;67396;42.664;23.382;2023-03-01T12:16:11;95290.84;;;6.90;65.88
78149;BME280;67396;42.664;23.382;2023-03-01T12:18:53;95289.53;;;6.99;65.62
78149;BME280;67396;42.664;23.382;2023-03-01T12:27:09;95289.38;;;6.92;66.03
78149;BME280;67396;42.664;23.382;2023-03-01T12:29:54;95272.09;;;6.88;66.17
78149;BME280;67396;42.664;23.382;2023-03-01T12:35:20;95279.59;;;6.91;66.03
78149;BME280;67396;42.664;23.382;2023-03-01T12:51:23;95277.69;;;6.76;67.00
78149;BME280;67396;42.664;23.382;2023-03-01T12:53:53;95276.41;;;6.89;66.37
78149;BME280;67396;42.664;23.382;2023-03-01T12:56:23;95271.75;;;6.90;66.31
78149;BME280;67396;42.664;23.382;2023-03-01T13:02:32;95267.34;;;7.01;65.71
78149;BME280;67396;42.664;23.382;2023-03-01T13:05:16;95258.53;;;7.07;65.68
78149;BME280;67396;42.664;23.382;2023-03-01T13:08:08;95266.91;;;6.99;65.70
78149;BME280;67396;42.664;23.382;2023-03-01T13:15:37;95264.38;;;6.90;66.96
78149;BME280;67396;42.664;23.382;2023-03-01T13:25:34;95262.78;;;6.89;67.24
78149;BME280;67396;42.664;23.382;2023-03-01T13:30:57;95264.69;;;7.04;66.38
78149;BME280;67396;42.664;23.382;2023-03-01T13:35:48;95269.59;;;7.14;66.60
78149;BME280;67396;42.664;23.382;2023-03-01T13:46:53;95257.91;;;7.14;65.79
78149;BME280;67396;42.664;23.382;2023-03-01T13:49:27;95259.41;;;7.11;66.09
78149;BME280;67396;42.664;23.382;2023-03-01T13:51:53;95257.44;;;7.28;65.54
78149;BME280;67396;42.664;23.382;2023-03-01T13:54:29;95255.53;;;7.12;65.84
78149;BME280;67396;42.664;23.382;2023-03-01T13:56:56;95255.81;;;7.07;66.37
78149;BME280;67396;42.664;23.382;2023-03-01T13:59:23;95259.88;;;6.98;67.02
78149;BME280;67396;42.664;23.382;2023-03-01T14:01:53;95261.53;;;7.02;67.03
78149;BME280;67396;42.664;23.382;2023-03-01T14:06:49;95252.69;;;6.74;68.18
78149;BME280;67396;42.664;23.382;2023-03-01T14:09:25;95265.34;;;6.82;68.22
78149;BME280;67396;42.664;23.382;2023-03-01T14:20:12;95270.88;;;7.01;67.48
78149;BME280;67396;42.664;23.382;2023-03-01T14:22:41;95249.41;;;6.84;68.00
78149;BME280;67396;42.664;23.382;2023-03-01T14:27:58;95263.16;;;6.72;69.51
78149;BME280;67396;42.664;23.382;2023-03-01T14:30:33;95257.94;;;6.83;69.35
78149;BME280;67396;42.664;23.382;2023-03-01T14:33:02;95265.78;;;6.84;69.03
78149;BME280;67396;42.664;23.382;2023-03-01T14:35:30;95267.81;;;6.71;69.49
78149;BME280;67396;42.664;23.382;2023-03-01T14:37:57;95261.66;;;6.59;70.16
78149;BME280;67396;42.664;23.382;2023-03-01T14:40:31;95270.81;;;6.51;69.92
78149;BME280;67396;42.664;23.382;2023-03-01T14:42:59;95253.38;;;6.55;69.99
78149;BME280;67396;42.664;23.382;2023-03-01T14:45:27;95254.19;;;6.56;70.09
78149;BME280;67396;42.664;23.382;2023-03-01T14:47:54;95254.88;;;6.53;70.28
78149;BME280;67396;42.664;23.382;2023-03-01T14:50:31;95267.88;;;6.43;70.79
78149;BME280;67396;42.664;23.382;2023-03-01T14:52:59;95251.00;;;6.38;71.18
78149;BME280;67396;42.664;23.382;2023-03-01T14:55:31;95266.13;;;6.35;70.67